CheckWX is a tool to help pilots better visualize weather data.  It is not intended as a substitute for an official pre-flight weather briefing.

21:40:21 UTC

KUTA METAR
Tunica Municipal Airport
Tunica, Mississippi, USA
Current

25 mins ago

KUTA 212115Z AUTO 34009KT 10SM 03/M03 A3062 RMK AO2 TSNO
Observed
Feb-21 @ 21:15 UTC
Wind
  • 340° at 9 KTS
Visibility
10 SM
Temperature
C / 37°F
Dewpoint
-3°C / 27°F
Humidity
65%
Altimeter
30.62" Hg
Pressure
1036.92 hPa
Previous

45 mins ago

KUTA 212055Z AUTO 33008KT 10SM 03/M03 A3063 RMK AO2 TSNO
Observed
Feb-21 @ 20:55 UTC
Wind
  • 330° at 8 KTS
Visibility
10 SM
Temperature
C / 37°F
Dewpoint
-3°C / 27°F
Humidity
65%
Altimeter
30.63" Hg
Pressure
1037.22 hPa
Previous

1 hour ago

KUTA 212035Z AUTO 31008KT 10SM 03/M03 A3063 RMK AO2 TSNO
Observed
Feb-21 @ 20:35 UTC
Wind
  • 310° at 8 KTS
Visibility
10 SM
Temperature
C / 37°F
Dewpoint
-3°C / 27°F
Humidity
65%
Altimeter
30.63" Hg
Pressure
1037.22 hPa